Rosalie, Nebraska
Current Conditions -  °F | °C
As of 6:52 AM on Friday 19 Dec 2014 (Local Time) from KSUX Reporting Station
Haze Haze  
Wind Chill: 25°   Ceiling: 2000
Heat Index: 31°   Visibility: 5mi
Dew Point: 28°   Wind: 6mph
Humidity: 89%   Direction: 160°SSE
Pressure: 30.2"   Gusts: NA
Location:  42.06°N, 96.51°W
Report Text: KSUX 191252Z 16005KT 5SM BR SCT011 OVC020 M01/M02 A3020 RMK AO2 SLP238 T10061022
Loading
Personal Weather Stations






























Interactive Weather Map New forecast layout! Learn more

10-Day Weather Forecast

Advertisements
Track Severe Weather on mobile